Time;durP1;ratioP1;P1;durP2;ratioP2;P2;SDS_P1;SDS_P2;PMS_P1;PMS_P2;Temp;Humidity;BMP_temperature;BMP_pressure;BME280_temperature;BME280_humidity;BME280_pressure;Samples;Min_cycle;Max_cycle;Signal;HPM_P1;HPM_P2
2021/10/26 00:02:14;;;;;;;14.80;11.88;;;;;;;13.26;76.17;100507.84;5042198;28;20056;-82
2021/10/26 00:04:43;;;;;;;;;;;;;;;13.27;75.16;100517.03;5058449;28;20048;-82
2021/10/26 00:07:11;;;;;;;15.85;11.70;;;;;;;13.28;75.48;100513.09;5076234;28;19928;-82
2021/10/26 00:09:41;;;;;;;14.77;10.95;;;;;;;13.27;75.96;100511.44;5051019;28;20422;-82
2021/10/26 00:12:10;;;;;;;14.30;11.10;;;;;;;13.25;75.47;100520.19;5036715;28;20057;-82
2021/10/26 00:14:37;;;;;;;13.30;11.35;;;;;;;13.19;76.29;100518.72;5036281;28;20418;-82
2021/10/26 00:17:05;;;;;;;16.48;11.18;;;;;;;13.28;75.57;100518.72;5040698;28;20060;-82
2021/10/26 00:19:33;;;;;;;14.52;10.50;;;;;;;13.38;75.25;100516.41;5054474;28;20482;-82
2021/10/26 00:22:02;;;;;;;17.27;11.95;;;;;;;13.39;75.31;100520.03;5056092;28;20056;-83
2021/10/26 00:24:29;;;;;;;13.50;10.88;;;;;;;13.47;75.17;100521.16;5050159;28;20045;-83
2021/10/26 00:26:57;;;;;;;15.48;10.52;;;;;;;13.48;75.11;100523.63;5035706;28;20060;-83
2021/10/26 00:29:26;;;;;;;15.30;11.27;;;;;;;13.42;74.94;100529.72;5036337;28;20487;-83
2021/10/26 00:31:54;;;;;;;12.43;9.85;;;;;;;13.48;74.72;100529.25;5036168;28;20057;-83
2021/10/26 00:34:22;;;;;;;12.52;9.57;;;;;;;13.47;74.39;100526.75;5036265;28;20380;-83
2021/10/26 00:36:49;;;;;;;13.63;8.52;;;;;;;13.47;73.85;100532.34;5053859;28;20060;-82
2021/10/26 00:39:18;;;;;;;15.05;10.13;;;;;;;13.40;74.85;100528.09;5054433;28;20406;-83
2021/10/26 00:41:46;;;;;;;12.30;9.70;;;;;;;13.40;74.61;100542.09;5044734;28;20064;-83
2021/10/26 00:44:13;;;;;;;11.98;9.68;;;;;;;13.27;75.58;100529.06;5056596;28;20060;-83
2021/10/26 00:46:43;;;;;;;13.63;10.63;;;;;;;13.28;75.79;100524.31;5056552;28;20058;-83
2021/10/26 00:49:14;;;;;;;16.23;11.30;;;;;;;13.23;76.11;100521.66;5056283;28;20049;-83
2021/10/26 00:51:42;;;;;;;13.52;10.85;;;;;;;13.25;76.32;100524.94;5050871;28;20509;-83
2021/10/26 00:54:10;;;;;;;14.13;10.80;;;;;;;13.22;76.31;100525.63;5048188;28;20048;-83
2021/10/26 00:56:39;;;;;;;14.55;11.05;;;;;;;13.12;76.63;100526.78;5056697;28;20053;-83
2021/10/26 00:59:06;;;;;;;16.10;11.57;;;;;;;13.12;76.92;100524.81;5055763;28;20052;-83
2021/10/26 01:01:34;;;;;;;13.05;10.95;;;;;;;13.09;76.45;100530.25;5048408;28;20390;-83
2021/10/26 01:04:01;;;;;;;17.00;12.30;;;;;;;13.08;76.93;100525.78;5055879;28;20421;-83
2021/10/26 01:06:29;;;;;;;13.02;11.23;;;;;;;13.10;76.88;100529.91;5058951;28;20068;-83
2021/10/26 01:08:57;;;;;;;14.50;10.68;;;;;;;13.15;76.79;100528.94;5058878;28;20048;-83
2021/10/26 01:11:27;;;;;;;13.20;10.52;;;;;;;13.14;76.39;100538.44;5052960;28;20045;-83
2021/10/26 01:13:58;;;;;;;13.50;11.23;;;;;;;13.19;76.73;100538.31;5038264;28;20053;-83
2021/10/26 01:16:25;;;;;;;14.60;11.70;;;;;;;13.26;76.73;100533.00;5044033;28;20045;-83
2021/10/26 01:18:53;;;;;;;13.90;11.05;;;;;;;13.31;76.50;100530.09;5052330;28;20057;-83
2021/10/26 01:21:22;;;;;;;15.25;11.30;;;;;;;13.31;76.17;100532.03;5057793;28;20068;-83
2021/10/26 01:23:49;;;;;;;14.40;12.00;;;;;;;13.34;76.38;100529.41;5052247;28;20056;-83
2021/10/26 01:26:16;;;;;;;13.35;10.30;;;;;;;13.31;76.64;100535.69;5058785;28;20496;-83
2021/10/26 01:28:44;;;;;;;14.20;10.40;;;;;;;13.42;75.65;100535.31;5058562;28;20063;-83
2021/10/26 01:31:11;;;;;;;12.82;10.10;;;;;;;13.35;75.34;100533.84;5057401;28;20080;-83
2021/10/26 01:33:39;;;;;;;12.65;10.02;;;;;;;13.46;75.00;100534.34;5058604;28;20053;-84
2021/10/26 01:36:07;;;;;;;15.75;11.38;;;;;;;13.43;75.26;100520.19;5057673;28;20057;-83
2021/10/26 01:38:36;;;;;;;13.35;11.18;;;;;;;13.35;75.96;100525.44;5057535;28;20056;-83
2021/10/26 01:41:04;;;;;;;13.35;10.65;;;;;;;13.38;75.71;100524.81;5058806;28;20052;-83
2021/10/26 01:43:32;;;;;;;13.82;11.25;;;;;;;13.42;75.82;100524.13;5058489;28;20068;-83
2021/10/26 01:45:59;;;;;;;13.70;10.75;;;;;;;13.50;75.75;100537.28;5057336;28;20049;-83
2021/10/26 01:48:27;;;;;;;14.23;10.85;;;;;;;13.52;75.06;100529.38;5052730;28;20049;-83
2021/10/26 01:50:57;;;;;;;16.27;11.15;;;;;;;13.53;74.98;100534.66;5049303;28;20406;-83
2021/10/26 01:53:27;;;;;;;11.30;10.10;;;;;;;13.53;75.19;100531.03;5058324;28;20057;-83
2021/10/26 01:55:56;;;;;;;14.70;10.07;;;;;;;13.60;75.21;100534.13;5057813;28;20053;-83
2021/10/26 01:58:23;;;;;;;14.38;10.85;;;;;;;13.59;74.71;100538.91;5039643;28;20486;-83
2021/10/26 02:00:51;;;;;;;12.55;9.98;;;;;;;13.57;74.71;100538.41;5040804;28;20060;-83
2021/10/26 02:03:20;;;;;;;16.13;11.20;;;;;;;13.59;74.49;100532.50;5046872;28;20064;-83
2021/10/26 02:05:50;;;;;;;15.35;10.57;;;;;;;13.61;74.34;100535.78;5050944;28;20060;-83
2021/10/26 02:08:17;;;;;;;12.10;10.05;;;;;;;13.52;74.48;100534.97;5057979;28;20063;-83
2021/10/26 02:10:45;;;;;;;14.93;11.00;;;;;;;13.56;74.69;100541.53;5046837;28;20049;-83
2021/10/26 02:13:14;;;;;;;14.32;10.68;;;;;;;13.56;74.47;100531.16;5038034;28;20061;-83
2021/10/26 02:15:44;;;;;;;17.27;10.95;;;;;;;13.60;74.68;100531.31;5038364;28;20065;-83
2021/10/26 02:18:15;;;;;;;15.27;12.43;;;;;;;13.60;74.54;100528.53;5046567;28;20060;-83
2021/10/26 02:20:42;;;;;;;14.75;12.65;;;;;;;13.62;74.26;100520.63;5054651;28;20049;-83
2021/10/26 02:23:09;;;;;;;16.88;13.13;;;;;;;13.50;75.01;100535.31;5053968;28;20045;-83
2021/10/26 02:25:37;;;;;;;16.40;13.00;;;;;;;13.51;74.77;100527.75;5053756;28;20053;-83
2021/10/26 02:28:04;;;;;;;17.60;13.38;;;;;;;13.53;74.88;100525.44;5056452;28;20050;-83
2021/10/26 02:30:33;;;;;;;17.60;12.75;;;;;;;13.39;74.78;100529.22;5048740;28;20498;-83
2021/10/26 02:33:01;;;;;;;17.92;13.57;;;;;;;13.31;75.54;100530.09;5047770;28;20411;-82
2021/10/26 02:35:29;;;;;;;15.48;12.50;;;;;;;13.35;75.84;100533.84;5041562;28;20049;-83
2021/10/26 02:37:56;;;;;;;16.80;12.77;;;;;;;13.34;75.20;100534.19;5057384;28;20056;-82
2021/10/26 02:40:24;;;;;;;16.15;12.90;;;;;;;13.31;75.51;100541.28;5060441;28;20057;-83
2021/10/26 02:42:51;;;;;;;15.88;13.00;;;;;;;13.27;76.06;100537.47;5061889;28;20048;-83
2021/10/26 02:45:19;;;;;;;18.83;14.25;;;;;;;13.32;75.91;100542.91;5059633;28;20052;-83
2021/10/26 02:47:47;;;;;;;15.40;12.75;;;;;;;13.23;76.16;100533.69;5059925;28;20064;-83
2021/10/26 02:50:19;;;;;;;18.23;13.30;;;;;;;13.07;76.87;100544.53;5055283;28;20103;-83
2021/10/26 02:52:47;;;;;;;18.42;13.02;;;;;;;13.19;76.53;100538.31;5047919;28;20086;-83
2021/10/26 02:55:14;;;;;;;17.63;13.25;;;;;;;13.23;76.23;100538.44;5041058;28;20057;-82
2021/10/26 02:57:42;;;;;;;16.00;13.02;;;;;;;13.31;75.77;100535.69;5040865;28;20057;-83
2021/10/26 03:00:11;;;;;;;16.67;13.25;;;;;;;13.30;76.44;100542.41;5048810;28;20057;-83
2021/10/26 03:02:39;;;;;;;19.50;13.85;;;;;;;13.36;75.64;100549.50;5059663;28;20053;-83
2021/10/26 03:05:08;;;;;;;18.15;13.43;;;;;;;13.31;76.02;100546.03;5060047;28;20056;-83
2021/10/26 03:07:42;;;;;;;14.23;12.35;;;;;;;13.38;75.72;100541.59;5059549;28;20052;-83
2021/10/26 03:10:10;;;;;;;17.02;13.18;;;;;;;13.31;76.31;100546.03;5057726;28;20060;-83
2021/10/26 03:12:37;;;;;;;15.35;12.52;;;;;;;13.32;75.91;100534.53;5055889;28;20046;-82
2021/10/26 03:15:11;;;;;;;15.57;11.00;;;;;;;13.40;75.44;100538.47;5039692;28;20061;-82
2021/10/26 03:17:39;;;;;;;15.65;12.05;;;;;;;13.30;75.90;100534.03;5043556;28;20056;-82
2021/10/26 03:20:09;;;;;;;15.30;11.05;;;;;;;13.30;75.50;100542.41;5057320;28;20057;-82
2021/10/26 03:22:37;;;;;;;14.00;10.65;;;;;;;13.27;76.39;100540.28;5053464;28;20049;-82
2021/10/26 03:25:06;;;;;;;15.25;11.95;;;;;;;13.30;75.52;100538.81;5058113;28;20067;-82
2021/10/26 03:27:37;;;;;;;15.75;12.00;;;;;;;13.35;75.89;100539.44;5060350;28;20478;-83
2021/10/26 03:30:09;;;;;;;17.17;12.15;;;;;;;13.39;75.35;100537.63;5059180;28;20071;-83
2021/10/26 03:32:40;;;;;;;14.43;11.20;;;;;;;13.36;76.16;100538.31;5052051;28;20386;-82
2021/10/26 03:35:11;;;;;;;15.32;12.35;;;;;;;13.40;75.29;100538.47;5055661;28;20053;-82
2021/10/26 03:37:40;;;;;;;16.55;11.40;;;;;;;13.35;75.96;100541.41;5060123;28;20053;-83
2021/10/26 03:40:10;;;;;;;16.17;12.93;;;;;;;13.39;76.09;100542.41;5057420;28;20041;-82
2021/10/26 03:42:37;;;;;;;14.55;11.80;;;;;;;13.48;75.73;100539.59;5059949;28;20052;-82
2021/10/26 03:45:09;;;;;;;17.08;12.55;;;;;;;13.45;75.23;100538.28;5058588;28;20049;-82
2021/10/26 03:47:39;;;;;;;17.15;11.75;;;;;;;13.38;75.90;100536.00;5055703;28;20056;-82
2021/10/26 03:50:09;;;;;;;16.20;12.05;;;;;;;13.36;75.84;100543.09;5049107;28;20053;-83
2021/10/26 03:52:37;;;;;;;14.68;12.50;;;;;;;13.45;75.69;100543.06;5039519;28;20525;-83
2021/10/26 03:55:08;;;;;;;16.50;12.90;;;;;;;13.48;75.40;100550.78;5039377;28;20398;-82
2021/10/26 03:57:36;;;;;;;18.17;12.20;;;;;;;13.52;75.33;100543.38;5039127;28;20069;-82
2021/10/26 04:00:07;;;;;;;15.95;12.18;;;;;;;13.56;74.91;100544.34;5040714;28;20571;-82
2021/10/26 04:02:39;;;;;;;14.90;11.48;;;;;;;13.51;74.73;100550.13;5054666;28;20078;-83
2021/10/26 04:05:17;;;;;;;15.23;11.93;;;;;;;13.56;75.28;100547.13;5043429;28;20056;-82
2021/10/26 04:07:48;;;;;;;18.45;12.10;;;;;;;13.55;75.21;100553.91;5043892;28;20056;-83
2021/10/26 04:10:18;;;;;;;16.95;11.52;;;;;;;13.51;75.29;100552.94;5058840;28;20067;-83
2021/10/26 04:12:46;;;;;;;16.83;11.73;;;;;;;13.56;74.84;100563.94;5058502;28;20056;-83
2021/10/26 04:15:13;;;;;;;15.43;12.07;;;;;;;13.51;75.25;100564.94;5057964;28;20049;-83
2021/10/26 04:17:40;;;;;;;16.40;12.55;;;;;;;13.53;75.39;100562.63;5049544;28;20395;-82
2021/10/26 04:20:10;;;;;;;18.13;12.95;;;;;;;13.42;76.01;100561.34;5057243;28;20060;-83
2021/10/26 04:22:40;;;;;;;;;;;;;;;13.50;74.68;100566.09;5059497;28;20063;-83
2021/10/26 04:25:08;;;;;;;15.90;12.75;;;;;;;13.48;75.52;100562.81;5050159;28;19947;-82
2021/10/26 04:27:35;;;;;;;14.98;11.55;;;;;;;13.53;75.21;100564.63;5058754;28;20060;-83
2021/10/26 04:30:03;;;;;;;16.08;11.80;;;;;;;13.33;75.72;100566.97;5057982;28;20045;-82
2021/10/26 04:32:31;;;;;;;13.50;10.90;;;;;;;13.47;75.02;100569.56;5053618;28;20045;-83
2021/10/26 04:34:58;;;;;;;13.73;11.88;;;;;;;13.50;75.34;100573.66;5049078;28;20064;-82
2021/10/26 04:37:28;;;;;;;14.80;12.48;;;;;;;13.42;75.18;100574.50;5057920;28;20056;-83
2021/10/26 04:39:56;;;;;;;16.67;12.60;;;;;;;13.47;75.71;100571.53;5057869;28;20057;-83
2021/10/26 04:42:23;;;;;;;19.77;13.20;;;;;;;13.47;75.27;100571.53;5057362;28;20049;-83
2021/10/26 04:44:50;;;;;;;19.83;12.98;;;;;;;13.53;75.15;100584.19;5058036;28;20053;-83
2021/10/26 04:47:22;;;;;;;16.10;13.00;;;;;;;13.49;75.26;100586.00;5056804;28;20060;-83
2021/10/26 04:49:50;;;;;;;17.23;13.27;;;;;;;13.56;75.27;100591.91;5053290;28;20045;-83
2021/10/26 04:52:17;;;;;;;25.80;15.90;;;;;;;13.49;75.57;100594.41;5042697;28;20052;-83
2021/10/26 04:54:46;;;;;;;21.17;15.18;;;;;;;13.55;75.30;100590.28;5056799;28;20057;-83
2021/10/26 04:57:13;;;;;;;23.60;14.63;;;;;;;13.55;75.22;100595.88;5056629;28;20053;-82
2021/10/26 04:59:40;;;;;;;19.85;14.95;;;;;;;13.61;75.16;100591.75;5049494;28;20056;-83
2021/10/26 05:02:08;;;;;;;18.67;14.88;;;;;;;13.44;75.75;100592.63;5037389;28;20053;-82
2021/10/26 05:04:35;;;;;;;18.70;13.90;;;;;;;13.53;75.87;100598.19;5056401;28;20057;-83
2021/10/26 05:07:03;;;;;;;17.45;14.10;;;;;;;13.69;74.87;100590.09;5056415;28;20056;-82
2021/10/26 05:09:30;;;;;;;22.83;14.30;;;;;;;13.54;75.46;100597.03;5045196;28;20060;-83
2021/10/26 05:11:59;;;;;;;27.88;17.58;;;;;;;13.55;77.42;100590.28;5050063;28;20057;-82
2021/10/26 05:14:26;;;;;;;24.33;17.93;;;;;;;13.54;77.41;100599.81;5054701;28;20072;-82
2021/10/26 05:16:55;;;;;;;33.38;18.77;;;;;;;13.47;77.40;100599.53;5057312;28;20052;-83
2021/10/26 05:19:24;;;;;;;30.20;19.70;;;;;;;13.57;77.58;100593.56;5053805;28;20061;-83
2021/10/26 05:21:51;;;;;;;27.17;18.60;;;;;;;13.56;77.04;100606.72;5054634;28;20052;-82
2021/10/26 05:24:18;;;;;;;29.27;19.20;;;;;;;13.55;77.28;100610.69;5046531;28;20057;-82
2021/10/26 05:26:47;;;;;;;34.03;22.67;;;;;;;13.50;77.75;100607.22;5055432;28;20049;-82
2021/10/26 05:29:15;;;;;;;30.23;20.77;;;;;;;13.58;77.59;100612.00;5054243;28;20085;-82
2021/10/26 05:31:43;;;;;;;29.93;20.60;;;;;;;13.62;77.58;100612.16;5059000;28;20053;-82
2021/10/26 05:34:10;;;;;;;31.13;21.58;;;;;;;13.56;77.87;100611.50;5052483;28;20430;-82
2021/10/26 05:36:38;;;;;;;30.10;19.65;;;;;;;13.61;77.67;100608.56;5059075;28;20063;-82
2021/10/26 05:39:08;;;;;;;28.10;18.88;;;;;;;13.62;77.33;100610.19;5056415;28;20072;-82
2021/10/26 05:41:36;;;;;;;30.92;19.55;;;;;;;13.67;76.68;100615.63;5059536;28;20056;-82
2021/10/26 05:44:04;;;;;;;32.35;19.02;;;;;;;13.67;77.02;100621.22;5049342;28;20494;-82
2021/10/26 05:46:33;;;;;;;26.63;18.08;;;;;;;13.57;76.61;100621.56;5047409;28;20049;-83
2021/10/26 05:49:01;;;;;;;23.17;18.97;;;;;;;13.61;76.73;100622.56;5059026;28;20049;-83
2021/10/26 05:51:28;;;;;;;30.88;20.42;;;;;;;13.51;77.30;100620.91;5058547;28;20049;-83
2021/10/26 05:53:55;;;;;;;29.40;19.23;;;;;;;13.49;77.07;100634.41;5055651;28;20053;-83
2021/10/26 05:56:24;;;;;;;33.22;19.63;;;;;;;13.43;77.52;100627.31;5057020;28;20063;-83
2021/10/26 05:58:53;;;;;;;26.23;19.23;;;;;;;13.49;77.05;100623.22;5058069;28;20045;-83
2021/10/26 06:01:22;;;;;;;;;;;;;;;13.35;77.11;100631.75;5062703;28;20049;-83
2021/10/26 06:03:51;;;;;;;27.55;18.35;;;;;;;13.47;77.32;100633.09;5048279;28;19928;-83
2021/10/26 06:06:19;;;;;;;28.77;18.02;;;;;;;13.43;76.47;100632.91;5042853;28;20064;-83
2021/10/26 06:08:49;;;;;;;22.20;17.92;;;;;;;13.51;76.43;100632.09;5042710;28;20061;-83
2021/10/26 06:11:17;;;;;;;22.02;14.73;;;;;;;13.49;75.77;100631.59;5054334;28;20107;-83
2021/10/26 06:13:48;;;;;;;23.20;14.90;;;;;;;13.38;76.09;100631.13;5057297;28;20490;-83
2021/10/26 06:16:15;;;;;;;22.00;16.30;;;;;;;13.34;76.02;100644.13;5051573;28;20494;-82
2021/10/26 06:18:42;;;;;;;20.52;15.00;;;;;;;13.27;76.50;100643.78;5043722;28;20056;-83
2021/10/26 06:21:11;;;;;;;23.90;16.40;;;;;;;13.34;76.09;100651.69;5043174;28;20053;-82
2021/10/26 06:23:39;;;;;;;20.23;15.60;;;;;;;13.30;76.55;100656.31;5051503;28;20052;-80
2021/10/26 06:26:06;;;;;;;21.70;15.77;;;;;;;13.28;76.41;100659.38;5055465;28;20045;-81
2021/10/26 06:28:34;;;;;;;21.17;14.95;;;;;;;13.23;76.72;100655.91;5060081;28;20059;-81
2021/10/26 06:31:03;;;;;;;18.25;12.25;;;;;;;13.36;75.89;100672.59;5061326;28;20044;-82
2021/10/26 06:33:30;;;;;;;18.25;13.48;;;;;;;13.18;75.92;100668.09;5061152;28;20049;-82
2021/10/26 06:35:58;;;;;;;16.33;12.52;;;;;;;13.26;76.42;100680.47;5060254;28;20389;-84
2021/10/26 06:38:27;;;;;;;22.73;15.23;;;;;;;13.25;76.51;100676.84;5062049;28;20053;-82
2021/10/26 06:40:54;;;;;;;20.65;14.57;;;;;;;13.28;76.09;100676.16;5060551;28;20060;-82
2021/10/26 06:43:21;;;;;;;17.67;12.18;;;;;;;13.31;75.88;100688.72;5057780;28;20056;-82
2021/10/26 06:45:49;;;;;;;18.98;13.38;;;;;;;13.30;75.94;100684.28;5055602;28;20474;-83
2021/10/26 06:48:17;;;;;;;20.88;15.65;;;;;;;13.42;76.16;100683.63;5051831;28;20518;-83
2021/10/26 06:50:44;;;;;;;30.02;19.35;;;;;;;13.51;76.04;100685.28;5058960;28;20045;-82
2021/10/26 06:53:11;;;;;;;15.32;10.45;;;;;;;13.56;74.85;100687.06;5058987;28;20049;-81
2021/10/26 06:55:40;;;;;;;18.95;12.40;;;;;;;13.59;74.84;100700.44;5060402;28;20056;-81
2021/10/26 06:58:08;;;;;;;16.15;10.90;;;;;;;13.61;74.58;100692.53;5051420;28;20064;-81
2021/10/26 07:00:35;;;;;;;15.77;10.80;;;;;;;13.46;75.07;100707.84;5060532;28;20076;-82
2021/10/26 07:03:04;;;;;;;15.77;10.63;;;;;;;13.53;74.56;100710.13;5049024;28;20041;-80
2021/10/26 07:05:32;;;;;;;14.68;10.40;;;;;;;13.58;74.63;100712.75;5053559;28;20055;-85
2021/10/26 07:08:00;;;;;;;18.23;10.85;;;;;;;13.61;74.47;100720.50;5055672;28;20054;-83
2021/10/26 07:10:27;;;;;;;15.55;11.02;;;;;;;13.55;74.30;100714.25;5063507;28;20059;-83
2021/10/26 07:12:56;;;;;;;16.23;10.40;;;;;;;13.64;74.50;100711.44;5050444;28;20053;-83
2021/10/26 07:15:29;;;;;;;19.10;10.77;;;;;;;13.61;74.32;100723.31;5046321;28;20049;-83
2021/10/26 07:17:57;;;;;;;15.10;10.13;;;;;;;13.59;74.80;100720.84;5051960;28;20064;-84
2021/10/26 07:20:25;;;;;;;13.35;8.65;;;;;;;13.75;74.24;100721.19;5050554;28;20391;-84
2021/10/26 07:22:54;;;;;;;12.75;9.05;;;;;;;13.75;73.29;100728.72;5054181;28;20045;-86
2021/10/26 07:25:22;;;;;;;15.73;8.82;;;;;;;13.67;73.54;100722.00;5056162;28;20072;-85
2021/10/26 07:27:57;;;;;;;15.85;9.55;;;;;;;13.69;73.79;100718.84;5057668;28;20049;-85
2021/10/26 07:30:32;;;;;;;12.73;9.27;;;;;;;13.64;72.57;100724.63;5055503;28;20053;-85
2021/10/26 07:33:02;;;;;;;11.32;7.90;;;;;;;13.77;73.39;100727.28;5056019;28;20057;-85
2021/10/26 07:35:35;;;;;;;12.68;8.00;;;;;;;13.89;72.92;100728.56;5051146;28;20060;-85
2021/10/26 07:38:02;;;;;;;12.10;7.90;;;;;;;13.93;72.10;100735.97;5058148;28;20383;-83
2021/10/26 07:40:30;;;;;;;14.55;8.43;;;;;;;13.92;71.51;100739.94;5056116;28;20067;-83
2021/10/26 07:42:57;;;;;;;13.32;7.80;;;;;;;13.79;72.20;100735.31;5050677;28;20058;-83
2021/10/26 07:45:26;;;;;;;12.35;7.88;;;;;;;13.96;71.73;100737.28;5039413;28;20060;-82
2021/10/26 07:47:53;;;;;;;13.23;8.45;;;;;;;13.86;72.08;100741.25;5053158;28;20057;-86
2021/10/26 07:50:21;;;;;;;9.43;7.05;;;;;;;13.84;71.94;100743.56;5046168;28;20053;-88
2021/10/26 07:52:48;;;;;;;15.80;8.18;;;;;;;13.99;71.57;100745.03;5054747;28;20045;-82
2021/10/26 07:55:17;;;;;;;12.80;7.57;;;;;;;14.00;71.22;100741.88;5047638;28;20053;-82
2021/10/26 07:57:45;;;;;;;14.32;6.75;;;;;;;13.86;70.24;100741.25;5044901;28;20045;-82
2021/10/26 08:00:13;;;;;;;11.15;6.45;;;;;;;13.95;71.23;100733.66;5047724;28;20053;-83
2021/10/26 08:02:43;;;;;;;10.30;5.95;;;;;;;14.19;70.41;100732.31;5054184;28;20053;-84
2021/10/26 08:05:10;;;;;;;;;;;;;;;14.28;69.21;100744.34;5050606;28;20058;-84
2021/10/26 08:07:37;;;;;;;8.23;5.55;;;;;;;14.36;69.64;100745.47;5060717;28;19921;-84
2021/10/26 08:10:05;;;;;;;12.38;6.80;;;;;;;14.41;69.67;100745.28;5059011;28;20529;-83
2021/10/26 08:12:33;;;;;;;12.85;7.50;;;;;;;14.17;69.28;100757.88;5052149;28;20056;-80
2021/10/26 08:15:01;;;;;;;11.60;6.15;;;;;;;14.10;69.96;100757.53;5052801;28;20060;-80
2021/10/26 08:17:29;;;;;;;12.48;7.32;;;;;;;14.30;69.80;100752.38;5052409;28;20053;-81
2021/10/26 08:19:57;;;;;;;10.73;6.20;;;;;;;14.47;69.18;100754.31;5046269;28;20490;-84
2021/10/26 08:22:26;;;;;;;11.87;7.47;;;;;;;14.40;69.24;100744.47;5053878;28;20049;-85
2021/10/26 08:24:57;;;;;;;11.57;7.22;;;;;;;14.34;69.70;100750.56;5053790;28;20053;-83
2021/10/26 08:27:25;;;;;;;12.10;7.10;;;;;;;14.15;70.37;100757.38;5057478;28;20417;-84
2021/10/26 08:29:58;;;;;;;12.25;7.20;;;;;;;14.35;70.18;100755.03;5060396;28;20052;-82
2021/10/26 08:35:22;;;;;;;10.40;7.68;;;;;;;14.50;69.89;100768.50;5057632;28;20059;-85
2021/10/26 08:37:51;;;;;;;7.75;6.15;;;;;;;14.54;69.48;100771.47;5061021;28;20072;-84
2021/10/26 08:40:20;;;;;;;14.27;7.03;;;;;;;14.62;69.42;100779.06;5059668;28;20478;-82
2021/10/26 08:42:48;;;;;;;11.80;6.85;;;;;;;14.54;68.01;100783.50;5056612;28;20056;-81
2021/10/26 08:45:19;;;;;;;13.18;6.20;;;;;;;14.68;67.81;100783.34;5057969;28;20049;-81
2021/10/26 08:47:47;;;;;;;11.13;6.03;;;;;;;14.53;68.58;100779.06;5058274;28;20048;-81
2021/10/26 08:50:18;;;;;;;12.48;6.20;;;;;;;14.67;67.82;100792.06;5058839;28;20048;-81
2021/10/26 08:52:45;;;;;;;7.53;5.43;;;;;;;14.64;68.35;100782.34;5057823;28;20061;-81
2021/10/26 08:55:14;;;;;;;8.52;6.10;;;;;;;14.77;67.73;100780.50;5056177;28;20048;-81
2021/10/26 08:57:41;;;;;;;10.00;6.03;;;;;;;14.60;68.09;100776.59;5058391;28;20052;-82
2021/10/26 09:00:10;;;;;;;14.77;6.93;;;;;;;14.65;68.42;100783.19;5057980;28;20056;-81
2021/10/26 09:02:42;;;;;;;9.85;6.38;;;;;;;14.76;67.54;100788.09;5057600;28;20052;-81
2021/10/26 09:05:12;;;;;;;10.73;6.50;;;;;;;14.82;68.41;100781.16;5056367;28;20517;-81
2021/10/26 09:07:41;;;;;;;14.07;7.03;;;;;;;14.99;67.61;100788.66;5057077;28;20053;-82
2021/10/26 09:10:15;;;;;;;12.55;7.63;;;;;;;15.06;67.25;100787.31;5056136;28;20064;-82
2021/10/26 09:18:26;;;;;;;13.95;6.85;;;;;;;14.98;67.00;100777.78;5059308;28;20067;-81
2021/10/26 09:20:54;;;;;;;8.45;6.20;;;;;;;14.87;67.05;100777.34;5053393;28;20052;-82
2021/10/26 09:23:27;;;;;;;11.13;6.43;;;;;;;14.93;66.93;100789.16;5056931;28;20060;-84
2021/10/26 09:25:58;;;;;;;10.82;6.88;;;;;;;14.90;67.01;100779.44;5056990;28;20048;-84
2021/10/26 09:28:26;;;;;;;8.60;5.95;;;;;;;14.98;67.03;100781.41;5056433;28;20052;-84
2021/10/26 09:31:05;;;;;;;11.80;6.57;;;;;;;15.18;66.23;100770.56;5057047;28;20049;-84
2021/10/26 09:33:36;;;;;;;10.50;4.53;;;;;;;15.21;64.85;100772.72;5054098;28;20490;-84
2021/10/26 09:36:27;;;;;;;11.38;5.50;;;;;;;15.06;64.62;100776.91;5057279;28;20060;-84
2021/10/26 09:39:13;;;;;;;11.77;6.28;;;;;;;15.28;64.26;100761.75;5043852;28;20057;-83
2021/10/26 09:42:02;;;;;;;10.40;5.40;;;;;;;15.43;63.55;100763.16;5057944;28;20056;-84
2021/10/26 09:44:32;;;;;;;6.80;5.00;;;;;;;15.56;63.97;100766.88;5049737;28;20098;-84
2021/10/26 09:47:03;;;;;;;10.05;4.93;;;;;;;15.51;63.81;100769.88;5057384;28;20045;-82
2021/10/26 09:49:34;;;;;;;9.02;4.90;;;;;;;15.55;64.25;100768.84;5051505;28;20056;-82
2021/10/26 09:52:16;;;;;;;9.15;5.70;;;;;;;15.80;62.85;100760.63;5055406;28;20053;-86
2021/10/26 09:54:50;;;;;;;7.47;4.78;;;;;;;15.91;63.21;100756.22;5047053;28;20049;-86
2021/10/26 09:57:18;;;;;;;8.60;4.70;;;;;;;15.90;63.03;100763.00;5054586;28;20061;-83
2021/10/26 09:59:48;;;;;;;10.05;4.72;;;;;;;15.95;62.44;100765.59;5046426;28;20060;-82
2021/10/26 10:02:21;;;;;;;8.75;4.35;;;;;;;16.01;62.79;100772.66;5045884;28;20056;-82
2021/10/26 10:04:48;;;;;;;8.13;4.32;;;;;;;15.88;62.67;100778.56;5052599;28;20045;-81
2021/10/26 10:07:27;;;;;;;9.73;4.68;;;;;;;15.85;61.48;100780.06;5053267;28;20070;-81
2021/10/26 10:09:57;;;;;;;10.85;4.30;;;;;;;15.99;61.95;100779.78;5051555;28;20060;-81
2021/10/26 10:12:26;;;;;;;7.07;4.10;;;;;;;16.78;60.44;100763.75;5054284;28;20063;-81
2021/10/26 10:14:54;;;;;;;7.57;4.22;;;;;;;18.19;56.37;100761.38;5053719;28;20061;-81
2021/10/26 10:17:24;;;;;;;5.07;3.10;;;;;;;19.18;53.74;100766.41;5053225;28;20402;-81
2021/10/26 10:19:52;;;;;;;6.05;3.20;;;;;;;19.27;52.10;100765.03;5056790;28;20474;-81
2021/10/26 10:22:23;;;;;;;7.13;3.00;;;;;;;19.59;51.89;100767.81;5049164;28;20071;-80
2021/10/26 10:24:54;;;;;;;8.85;3.33;;;;;;;18.80;51.31;100767.88;5047140;28;20056;-80
2021/10/26 10:27:30;;;;;;;4.32;2.67;;;;;;;19.00;50.92;100760.31;5053680;28;20053;-80
2021/10/26 10:29:59;;;;;;;5.50;2.95;;;;;;;18.70;51.73;100763.56;5051865;28;20061;-80
2021/10/26 10:32:28;;;;;;;6.55;3.55;;;;;;;18.41;52.56;100767.63;5048761;28;20045;-80
2021/10/26 10:34:57;;;;;;;6.95;3.05;;;;;;;18.22;53.31;100765.47;5051089;28;20061;-80
2021/10/26 10:37:26;;;;;;;5.18;2.95;;;;;;;17.94;53.44;100777.56;5047450;28;20048;-80
2021/10/26 10:39:57;;;;;;;5.93;2.95;;;;;;;18.39;52.93;100769.97;5046009;28;20484;-80
2021/10/26 10:42:30;;;;;;;5.47;2.50;;;;;;;18.31;51.06;100768.13;5038297;28;20061;-79
2021/10/26 10:44:59;;;;;;;7.47;3.00;;;;;;;19.33;49.46;100770.41;5052147;28;20064;-80
2021/10/26 10:47:39;;;;;;;4.55;2.20;;;;;;;19.95;47.59;100765.78;5052432;28;20052;-80
2021/10/26 10:50:37;;;;;;;8.00;2.78;;;;;;;20.88;44.23;100761.13;5050409;28;20054;-80
2021/10/26 10:53:08;;;;;;;6.22;1.95;;;;;;;20.41;44.73;100776.41;5053309;28;20052;-81
2021/10/26 10:55:36;;;;;;;6.50;2.28;;;;;;;20.61;46.56;100769.56;5045463;28;20060;-80
2021/10/26 10:58:29;;;;;;;6.53;2.20;;;;;;;20.02;46.09;100780.06;5057987;28;20053;-81
2021/10/26 11:01:26;;;;;;;5.97;2.72;;;;;;;19.33;47.11;100785.34;5054006;28;20053;-82
2021/10/26 11:03:55;;;;;;;8.77;2.83;;;;;;;18.83;49.27;100793.38;5056412;28;20056;-81
2021/10/26 11:06:51;;;;;;;7.40;3.00;;;;;;;18.66;49.86;100780.38;5059180;28;20474;-81
2021/10/26 11:09:54;;;;;;;9.25;3.08;;;;;;;18.32;50.69;100775.44;5057795;28;20040;-81
2021/10/26 11:12:34;;;;;;;11.50;4.45;;;;;;;18.61;51.23;100766.56;5048986;28;20512;-81
2021/10/26 11:15:06;;;;;;;7.93;3.22;;;;;;;18.78;52.06;100773.88;5058216;28;20493;-81
2021/10/26 11:17:58;;;;;;;6.18;3.50;;;;;;;19.34;50.19;100763.56;5056789;28;20049;-81
2021/10/26 11:20:43;;;;;;;5.78;3.17;;;;;;;20.07;47.35;100750.69;5057858;28;20057;-81
2021/10/26 11:23:15;;;;;;;5.93;3.30;;;;;;;21.12;46.00;100753.44;5052559;28;20072;-81
2021/10/26 11:25:47;;;;;;;4.30;2.60;;;;;;;20.90;47.19;100749.44;5047815;28;20060;-81
2021/10/26 11:28:34;;;;;;;5.35;3.00;;;;;;;21.01;45.72;100747.59;5046242;28;20049;-82
2021/10/26 11:31:08;;;;;;;7.35;3.30;;;;;;;21.86;43.99;100750.94;5043306;28;20097;-82
2021/10/26 11:33:37;;;;;;;4.72;2.38;;;;;;;20.82;45.27;100760.63;5056731;28;20045;-80
2021/10/26 11:36:06;;;;;;;;;;;;;;;20.24;46.02;100755.91;5057054;28;20049;-80